createdAt,value
2018-07-08T00:02:25.529Z,12.70
2018-07-08T00:04:53.264Z,12.87
2018-07-08T00:07:20.865Z,14.70
2018-07-08T00:09:48.571Z,11.77
2018-07-08T00:12:16.201Z,13.70
2018-07-08T00:14:43.809Z,15.47
2018-07-08T00:17:11.549Z,13.87
2018-07-08T00:19:39.188Z,15.03
2018-07-08T00:22:06.830Z,12.13
2018-07-08T00:24:34.428Z,15.43
2018-07-08T00:27:02.029Z,17.03
2018-07-08T00:29:29.592Z,11.87
2018-07-08T00:31:57.175Z,15.77
2018-07-08T00:34:24.762Z,12.97
2018-07-08T00:36:52.312Z,13.60
2018-07-08T00:39:19.874Z,19.00
2018-07-08T00:41:47.467Z,16.57
2018-07-08T00:44:14.983Z,15.47
2018-07-08T00:46:42.522Z,15.27
2018-07-08T00:49:10.240Z,15.57
2018-07-08T00:51:37.975Z,15.23
2018-07-08T00:54:05.617Z,14.50
2018-07-08T00:56:33.162Z,17.10
2018-07-08T00:59:00.747Z,12.17
2018-07-08T01:01:28.330Z,14.70
2018-07-08T01:03:55.954Z,14.83
2018-07-08T01:06:23.558Z,12.13
2018-07-08T01:08:51.137Z,17.20
2018-07-08T01:11:18.687Z,13.73
2018-07-08T01:13:46.277Z,17.43
2018-07-08T01:16:13.928Z,20.80
2018-07-08T01:18:41.511Z,16.60
2018-07-08T01:21:09.077Z,18.57
2018-07-08T01:23:36.625Z,19.10
2018-07-08T01:26:09.455Z,14.00
2018-07-08T01:28:37.405Z,16.20
2018-07-08T01:31:05.279Z,16.33
2018-07-08T01:33:32.839Z,15.07
2018-07-08T01:36:00.515Z,13.17
2018-07-08T01:38:28.094Z,15.63
2018-07-08T01:40:55.845Z,18.60
2018-07-08T01:43:23.449Z,13.67
2018-07-08T01:45:51.011Z,19.60
2018-07-08T01:48:18.553Z,18.10
2018-07-08T01:50:46.098Z,17.37
2018-07-08T01:53:13.733Z,15.90
2018-07-08T01:55:41.333Z,17.73
2018-07-08T01:58:08.878Z,12.40
2018-07-08T02:00:36.463Z,16.23
2018-07-08T02:03:04.199Z,17.20
2018-07-08T02:05:31.802Z,14.40
2018-07-08T02:07:59.590Z,14.07
2018-07-08T02:10:27.194Z,16.40
2018-07-08T02:12:54.868Z,15.73
2018-07-08T02:15:22.886Z,17.40
2018-07-08T02:17:50.439Z,16.47
2018-07-08T02:20:18.061Z,17.17
2018-07-08T02:22:45.819Z,18.00
2018-07-08T02:25:13.596Z,21.37
2018-07-08T02:27:41.184Z,14.47
2018-07-08T02:30:08.847Z,16.93
2018-07-08T02:32:36.504Z,19.80
2018-07-08T02:35:04.125Z,14.90
2018-07-08T02:37:31.771Z,18.70
2018-07-08T02:39:59.479Z,16.03
2018-07-08T02:42:27.066Z,17.27
2018-07-08T02:44:54.673Z,15.13
2018-07-08T02:47:22.740Z,15.50
2018-07-08T02:49:50.493Z,21.53
2018-07-08T02:52:18.656Z,28.07
2018-07-08T02:54:46.184Z,18.00
2018-07-08T02:57:13.916Z,15.23
2018-07-08T02:59:41.461Z,15.30
2018-07-08T03:02:08.997Z,18.73
2018-07-08T03:04:36.651Z,16.37
2018-07-08T03:07:04.269Z,17.47
2018-07-08T03:09:31.806Z,18.90
2018-07-08T03:11:59.342Z,15.70
2018-07-08T03:14:26.868Z,19.77
2018-07-08T03:16:54.391Z,17.10
2018-07-08T03:19:22.307Z,17.70
2018-07-08T03:21:49.917Z,19.13
2018-07-08T03:24:17.456Z,17.20
2018-07-08T03:26:45.082Z,15.40
2018-07-08T03:29:12.712Z,16.37
2018-07-08T03:31:40.336Z,15.40
2018-07-08T03:34:07.881Z,19.10
2018-07-08T03:36:35.395Z,17.53
2018-07-08T03:39:04.224Z,17.93
2018-07-08T03:41:31.795Z,16.70
2018-07-08T03:43:59.359Z,18.27
2018-07-08T03:46:26.911Z,22.30
2018-07-08T03:48:54.437Z,20.67
2018-07-08T03:51:21.941Z,15.63
2018-07-08T03:53:49.461Z,19.83
2018-07-08T03:56:17.013Z,15.67
2018-07-08T03:58:44.570Z,16.30
2018-07-08T04:01:12.123Z,20.00
2018-07-08T04:03:39.711Z,21.13
2018-07-08T04:06:07.321Z,21.00
2018-07-08T04:08:34.923Z,14.33
2018-07-08T04:11:02.544Z,17.00
2018-07-08T04:13:30.099Z,15.43
2018-07-08T04:15:57.644Z,20.37
2018-07-08T04:18:25.195Z,17.20
2018-07-08T04:20:52.748Z,14.63
2018-07-08T04:23:20.326Z,13.27
2018-07-08T04:25:47.919Z,17.30
2018-07-08T04:28:15.464Z,17.80
2018-07-08T04:30:42.997Z,22.43
2018-07-08T04:33:10.529Z,13.83
2018-07-08T04:35:38.106Z,18.03
2018-07-08T04:38:05.672Z,15.23
2018-07-08T04:40:33.214Z,13.97
2018-07-08T04:43:00.784Z,16.10
2018-07-08T04:45:28.342Z,12.97
2018-07-08T04:47:55.863Z,15.83
2018-07-08T04:50:23.478Z,15.37
2018-07-08T04:52:51.080Z,12.90
2018-07-08T04:55:18.598Z,13.87
2018-07-08T04:57:46.208Z,18.87
2018-07-08T05:00:13.762Z,15.40
2018-07-08T05:02:41.324Z,16.63
2018-07-08T05:05:08.902Z,22.87
2018-07-08T05:07:36.474Z,14.60
2018-07-08T05:10:04.053Z,15.43
2018-07-08T05:12:31.606Z,14.10
2018-07-08T05:14:59.186Z,14.83
2018-07-08T05:17:26.725Z,13.77
2018-07-08T05:19:54.266Z,14.57
2018-07-08T05:22:21.854Z,37.97
2018-07-08T05:24:49.395Z,11.83
2018-07-08T05:27:16.996Z,16.03
2018-07-08T05:29:44.591Z,14.40
2018-07-08T05:32:12.124Z,21.53
2018-07-08T05:34:39.764Z,13.30
2018-07-08T05:37:08.139Z,15.03
2018-07-08T05:39:35.922Z,14.10
2018-07-08T05:42:03.488Z,12.60
2018-07-08T05:44:31.046Z,14.50
2018-07-08T05:46:58.613Z,13.07
2018-07-08T05:49:26.162Z,12.70
2018-07-08T05:51:53.731Z,12.60
2018-07-08T05:54:21.277Z,15.10
2018-07-08T05:56:48.869Z,16.63
2018-07-08T05:59:16.402Z,17.17
2018-07-08T06:01:43.980Z,13.17
2018-07-08T06:04:11.575Z,14.90
2018-07-08T06:06:39.167Z,12.00
2018-07-08T06:09:07.002Z,10.80
2018-07-08T06:11:34.708Z,20.47
2018-07-08T06:14:02.343Z,14.20
2018-07-08T06:16:29.928Z,15.63
2018-07-08T06:18:57.442Z,12.20
2018-07-08T06:21:25.062Z,11.53
2018-07-08T06:23:52.651Z,13.40
2018-07-08T06:26:20.196Z,18.70
2018-07-08T06:28:47.777Z,10.03
2018-07-08T06:31:15.387Z,14.20
2018-07-08T06:33:42.969Z,16.10
2018-07-08T06:36:10.525Z,30.97
2018-07-08T06:38:38.077Z,14.40
2018-07-08T06:41:05.669Z,10.57
2018-07-08T06:43:33.310Z,14.00
2018-07-08T06:46:00.872Z,11.20
2018-07-08T06:48:28.506Z,11.93
2018-07-08T06:50:56.242Z,11.50
2018-07-08T06:53:23.776Z,11.50
2018-07-08T06:55:51.359Z,11.20
2018-07-08T06:58:19.071Z,11.63
2018-07-08T07:00:46.627Z,19.70
2018-07-08T07:03:14.204Z,11.97
2018-07-08T07:05:41.826Z,15.23
2018-07-08T07:08:09.364Z,19.87
2018-07-08T07:10:36.962Z,11.27
2018-07-08T07:13:04.822Z,11.30
2018-07-08T07:15:32.408Z,9.30
2018-07-08T07:18:00.001Z,11.00
2018-07-08T07:20:27.559Z,12.63
2018-07-08T07:22:55.411Z,13.87
2018-07-08T07:25:23.262Z,13.40
2018-07-08T07:27:50.845Z,10.67
2018-07-08T07:30:18.440Z,14.90
2018-07-08T07:32:46.053Z,17.50
2018-07-08T07:35:13.584Z,13.27
2018-07-08T07:37:41.154Z,10.07
2018-07-08T07:40:08.710Z,13.30
2018-07-08T07:42:36.292Z,8.50
2018-07-08T07:45:04.125Z,8.60
2018-07-08T07:47:31.691Z,11.27
2018-07-08T07:49:59.235Z,11.30
2018-07-08T07:52:26.814Z,8.87
2018-07-08T07:54:54.397Z,8.93
2018-07-08T07:57:21.951Z,10.73
2018-07-08T07:59:49.519Z,13.83
2018-07-08T08:02:17.102Z,12.40
2018-07-08T08:04:44.752Z,12.23
2018-07-08T08:07:12.380Z,9.13
2018-07-08T08:09:39.990Z,9.77
2018-07-08T08:12:07.555Z,11.13
2018-07-08T08:14:35.147Z,8.00
2018-07-08T08:17:02.834Z,10.80
2018-07-08T08:19:30.452Z,12.73
2018-07-08T08:21:57.999Z,9.90
2018-07-08T08:24:26.996Z,14.30
2018-07-08T08:26:54.657Z,10.27
2018-07-08T08:29:22.196Z,11.50
2018-07-08T08:31:49.807Z,8.27
2018-07-08T08:34:50.753Z,11.03
2018-07-08T08:37:19.552Z,9.43
2018-07-08T08:39:47.482Z,11.60
2018-07-08T08:42:15.332Z,8.53
2018-07-08T08:44:42.895Z,14.70
2018-07-08T08:47:10.475Z,9.53
2018-07-08T08:49:38.522Z,9.93
2018-07-08T08:52:07.301Z,8.63
2018-07-08T08:54:34.857Z,8.57
2018-07-08T08:57:02.446Z,10.07
2018-07-08T08:59:30.016Z,10.10
2018-07-08T09:01:57.631Z,9.67
2018-07-08T09:04:25.291Z,8.93
2018-07-08T09:06:52.916Z,9.40
2018-07-08T09:09:20.571Z,9.50
2018-07-08T09:11:48.103Z,8.90
2018-07-08T09:14:15.705Z,10.03
2018-07-08T09:16:43.286Z,10.50
2018-07-08T09:19:10.822Z,8.57
2018-07-08T09:21:38.380Z,11.13
2018-07-08T09:24:05.952Z,12.37
2018-07-08T09:26:33.528Z,12.23
2018-07-08T09:29:01.145Z,9.87
2018-07-08T09:31:28.716Z,9.53
2018-07-08T09:33:56.316Z,10.33
2018-07-08T09:36:23.846Z,10.47
2018-07-08T09:38:51.496Z,10.10
2018-07-08T09:41:19.004Z,8.30
2018-07-08T09:43:46.612Z,13.07
2018-07-08T09:46:14.170Z,9.00
2018-07-08T09:48:41.710Z,9.33
2018-07-08T09:51:09.328Z,9.83
2018-07-08T09:53:36.890Z,5.77
2018-07-08T09:56:04.561Z,10.27
2018-07-08T09:58:32.170Z,8.60
2018-07-08T10:01:01.701Z,9.53
2018-07-08T10:03:31.006Z,5.97
2018-07-08T10:05:58.577Z,7.13
2018-07-08T10:08:26.280Z,12.33
2018-07-08T10:10:54.043Z,39.40
2018-07-08T10:13:21.773Z,22.97
2018-07-08T10:15:49.804Z,9.60
2018-07-08T10:18:17.946Z,12.60
2018-07-08T10:20:45.861Z,12.33
2018-07-08T10:23:13.441Z,7.60
2018-07-08T10:25:41.029Z,8.53
2018-07-08T10:28:12.127Z,5.00
2018-07-08T10:30:39.814Z,6.43
2018-07-08T10:33:07.450Z,11.33
2018-07-08T10:35:46.351Z,10.83
2018-07-08T10:38:13.973Z,8.40
2018-07-08T10:40:41.513Z,6.40
2018-07-08T10:43:09.073Z,10.23
2018-07-08T10:45:36.643Z,8.90
2018-07-08T10:48:04.302Z,6.30
2018-07-08T10:50:31.882Z,5.33
2018-07-08T10:52:59.554Z,11.37
2018-07-08T10:55:27.220Z,6.00
2018-07-08T10:57:54.805Z,10.17
2018-07-08T11:00:22.379Z,7.10
2018-07-08T11:02:52.425Z,8.77
2018-07-08T11:05:19.991Z,4.67
2018-07-08T11:07:47.569Z,3.83
2018-07-08T11:10:15.203Z,10.30
2018-07-08T11:12:42.927Z,9.67
2018-07-08T11:15:10.592Z,5.80
2018-07-08T11:17:38.225Z,6.40
2018-07-08T11:20:06.039Z,6.13
2018-07-08T11:22:33.614Z,5.90
2018-07-08T11:25:01.189Z,8.03
2018-07-08T11:27:28.769Z,4.77
2018-07-08T11:29:56.430Z,6.30
2018-07-08T11:32:24.007Z,3.73
2018-07-08T11:34:51.658Z,4.83
2018-07-08T11:37:19.244Z,6.43
2018-07-08T11:39:46.993Z,7.40
2018-07-08T11:42:14.575Z,5.73
2018-07-08T11:44:42.137Z,9.67
2018-07-08T11:47:09.840Z,6.37
2018-07-08T11:49:37.415Z,5.97
2018-07-08T11:52:05.019Z,5.60
2018-07-08T11:54:32.637Z,6.70
2018-07-08T11:57:00.250Z,4.97
2018-07-08T11:59:27.855Z,6.37
2018-07-08T12:01:55.543Z,4.47
2018-07-08T12:04:23.115Z,4.70
2018-07-08T12:06:50.870Z,4.47
2018-07-08T12:09:18.453Z,15.00
2018-07-08T12:11:46.060Z,5.00
2018-07-08T12:14:13.646Z,6.13
2018-07-08T12:16:41.273Z,6.93
2018-07-08T12:19:08.933Z,6.80
2018-07-08T12:21:37.289Z,6.93
2018-07-08T12:24:04.936Z,5.90
2018-07-08T12:26:32.533Z,6.00
2018-07-08T12:29:00.155Z,4.07
2018-07-08T12:31:27.791Z,8.47
2018-07-08T12:33:55.386Z,9.20
2018-07-08T12:36:22.971Z,7.23
2018-07-08T12:38:50.530Z,12.10
2018-07-08T12:41:18.126Z,5.67
2018-07-08T12:43:45.696Z,5.00
2018-07-08T12:46:13.282Z,6.90
2018-07-08T12:48:40.878Z,10.30
2018-07-08T12:51:08.482Z,6.30
2018-07-08T12:53:36.071Z,5.47
2018-07-08T12:56:03.896Z,8.07
2018-07-08T12:58:31.536Z,12.83
2018-07-08T13:00:59.214Z,10.00
2018-07-08T13:03:26.795Z,7.60
2018-07-08T13:05:54.369Z,5.00
2018-07-08T13:08:21.989Z,5.13
2018-07-08T13:10:49.622Z,5.37
2018-07-08T13:13:17.199Z,5.50
2018-07-08T13:15:44.812Z,4.80
2018-07-08T13:18:12.398Z,9.30
2018-07-08T13:20:39.986Z,6.17
2018-07-08T13:23:07.610Z,6.53
2018-07-08T13:25:35.273Z,4.93
2018-07-08T13:28:02.926Z,10.30
2018-07-08T13:30:30.569Z,5.50
2018-07-08T13:32:58.194Z,6.13
2018-07-08T13:35:25.781Z,5.17
2018-07-08T13:37:53.340Z,5.80
2018-07-08T13:40:20.962Z,3.33
2018-07-08T13:42:48.531Z,6.87
2018-07-08T13:45:16.129Z,5.23
2018-07-08T13:47:43.725Z,3.83
2018-07-08T13:50:11.308Z,8.73
2018-07-08T13:52:38.900Z,4.17
2018-07-08T13:55:06.527Z,3.93
2018-07-08T13:57:34.202Z,4.60
2018-07-08T14:00:02.173Z,5.57
2018-07-08T14:02:29.779Z,3.77
2018-07-08T14:04:57.559Z,4.50
2018-07-08T14:07:25.177Z,5.43
2018-07-08T14:09:52.853Z,12.03
2018-07-08T14:12:20.449Z,6.70
2018-07-08T14:14:48.178Z,4.87
2018-07-08T14:17:15.761Z,7.93
2018-07-08T14:19:43.449Z,8.10
2018-07-08T14:22:11.016Z,4.57
2018-07-08T14:24:38.611Z,4.80
2018-07-08T14:27:06.332Z,5.80
2018-07-08T14:29:34.357Z,6.20
2018-07-08T14:32:02.009Z,3.90
2018-07-08T14:34:29.648Z,3.03
2018-07-08T14:36:57.230Z,2.60
2018-07-08T14:39:24.835Z,6.83
2018-07-08T14:41:52.461Z,3.93
2018-07-08T14:44:20.040Z,4.30
2018-07-08T14:46:47.583Z,2.77
2018-07-08T14:49:15.178Z,6.80
2018-07-08T14:51:42.785Z,4.77
2018-07-08T14:54:10.413Z,8.63
2018-07-08T14:56:37.957Z,12.00
2018-07-08T14:59:05.540Z,2.53
2018-07-08T15:01:33.182Z,4.77
2018-07-08T15:04:00.853Z,7.60
2018-07-08T15:06:28.418Z,5.83
2018-07-08T15:08:56.294Z,2.27
2018-07-08T15:11:23.924Z,3.37
2018-07-08T15:13:51.653Z,3.43
2018-07-08T15:16:19.319Z,2.13
2018-07-08T15:18:46.887Z,3.87
2018-07-08T15:21:14.506Z,4.87
2018-07-08T15:23:42.054Z,5.17
2018-07-08T15:26:09.646Z,6.63
2018-07-08T15:28:37.258Z,2.20
2018-07-08T15:31:04.942Z,2.33
2018-07-08T15:33:32.500Z,2.53
2018-07-08T15:36:00.116Z,5.30
2018-07-08T15:38:27.734Z,2.43
2018-07-08T15:40:55.339Z,5.73
2018-07-08T15:43:23.108Z,3.97
2018-07-08T15:45:50.780Z,3.27
2018-07-08T15:48:18.403Z,4.70
2018-07-08T15:50:45.999Z,4.97
2018-07-08T15:53:13.599Z,2.93
2018-07-08T15:55:41.219Z,2.53
2018-07-08T15:58:08.838Z,4.70
2018-07-08T16:00:36.387Z,3.33
2018-07-08T16:03:04.016Z,2.60
2018-07-08T16:05:31.618Z,11.60
2018-07-08T16:07:59.498Z,1.47
2018-07-08T16:10:27.057Z,3.20
2018-07-08T16:12:54.724Z,4.13
2018-07-08T16:15:22.330Z,2.70
2018-07-08T16:17:49.955Z,2.80
2018-07-08T16:20:17.661Z,3.23
2018-07-08T16:22:45.267Z,1.90
2018-07-08T16:25:12.885Z,3.67
2018-07-08T16:27:40.521Z,2.03
2018-07-08T16:30:08.226Z,1.60
2018-07-08T16:32:36.005Z,1.17
2018-07-08T16:35:03.691Z,1.10
2018-07-08T16:37:31.435Z,2.10
2018-07-08T16:39:59.021Z,1.43
2018-07-08T16:42:26.642Z,2.30
2018-07-08T16:44:54.318Z,1.77
2018-07-08T16:47:21.967Z,5.30
2018-07-08T16:49:49.565Z,2.30
2018-07-08T16:52:17.281Z,1.77
2018-07-08T16:54:44.882Z,3.63
2018-07-08T16:57:12.515Z,1.70
2018-07-08T16:59:40.121Z,1.47
2018-07-08T17:02:08.060Z,3.23
2018-07-08T17:04:36.043Z,3.27
2018-07-08T17:07:03.761Z,2.13
2018-07-08T17:09:31.385Z,2.23
2018-07-08T17:11:59.064Z,2.83
2018-07-08T17:14:26.692Z,3.67
2018-07-08T17:16:54.311Z,3.20
2018-07-08T17:19:22.002Z,4.07
2018-07-08T17:21:49.748Z,1.20
2018-07-08T17:24:17.467Z,7.00
2018-07-08T17:26:46.253Z,4.17
2018-07-08T17:29:14.149Z,4.60
2018-07-08T17:31:41.743Z,2.37
2018-07-08T17:34:09.416Z,3.33
2018-07-08T17:36:38.095Z,4.60
2018-07-08T17:39:06.634Z,4.40
2018-07-08T17:41:34.525Z,4.17
2018-07-08T17:44:02.228Z,1.43
2018-07-08T17:46:30.100Z,5.00
2018-07-08T17:48:59.684Z,5.63
2018-07-08T17:51:27.281Z,3.10
2018-07-08T17:53:55.026Z,4.60
2018-07-08T17:56:23.801Z,4.80
2018-07-08T18:01:25.796Z,4.20
2018-07-08T18:03:53.399Z,4.60
2018-07-08T18:06:21.174Z,3.50
2018-07-08T18:08:48.885Z,1.50
2018-07-08T18:11:16.726Z,2.70
2018-07-08T18:13:44.482Z,11.10
2018-07-08T18:16:12.151Z,3.97
2018-07-08T18:18:42.366Z,5.03
2018-07-08T18:21:10.073Z,2.00
2018-07-08T18:23:37.715Z,3.07
2018-07-08T18:26:05.574Z,4.80
2018-07-08T18:28:33.280Z,4.70
2018-07-08T18:31:00.980Z,4.03
2018-07-08T18:33:28.729Z,2.50
2018-07-08T18:35:56.388Z,1.53
2018-07-08T18:38:24.064Z,1.70
2018-07-08T18:40:51.701Z,4.17
2018-07-08T18:43:20.051Z,5.63
2018-07-08T18:45:47.719Z,2.53
2018-07-08T18:48:16.814Z,2.60
2018-07-08T18:50:44.493Z,2.07
2018-07-08T18:53:12.241Z,4.30
2018-07-08T18:55:40.060Z,1.90
2018-07-08T18:58:09.043Z,1.70
2018-07-08T19:00:36.959Z,2.70
2018-07-08T19:03:05.115Z,3.90
2018-07-08T19:05:32.874Z,2.33
2018-07-08T19:08:00.670Z,2.13
2018-07-08T19:10:28.555Z,2.57
2018-07-08T19:12:56.315Z,4.10
2018-07-08T19:15:24.672Z,2.67
2018-07-08T19:17:52.408Z,2.50
2018-07-08T19:20:20.120Z,3.50
2018-07-08T19:22:47.826Z,2.50
2018-07-08T19:25:15.494Z,2.93
2018-07-08T19:27:43.151Z,3.57
2018-07-08T19:30:11.002Z,4.17
2018-07-08T19:32:39.636Z,4.67
2018-07-08T19:35:07.349Z,2.57
2018-07-08T19:37:35.023Z,2.20
2018-07-08T19:40:03.070Z,3.57
2018-07-08T19:42:30.912Z,4.40
2018-07-08T19:44:58.640Z,2.17
2018-07-08T19:47:26.409Z,4.30
2018-07-08T19:49:54.159Z,2.93
2018-07-08T19:52:22.070Z,4.27
2018-07-08T19:54:51.102Z,4.20
2018-07-08T19:57:19.174Z,3.97
2018-07-08T19:59:47.016Z,2.57
2018-07-08T20:02:14.737Z,4.03
2018-07-08T20:04:42.756Z,6.43
2018-07-08T20:07:10.468Z,10.40
2018-07-08T20:09:38.131Z,3.33
2018-07-08T20:12:06.822Z,2.40
2018-07-08T20:14:34.822Z,4.30
2018-07-08T20:17:02.717Z,4.93
2018-07-08T20:19:30.545Z,5.30
2018-07-08T20:21:58.200Z,6.60
2018-07-08T20:24:25.950Z,3.53
2018-07-08T20:26:53.675Z,4.37
2018-07-08T20:29:21.480Z,3.57
2018-07-08T20:31:49.136Z,2.60
2018-07-08T20:34:16.848Z,3.80
2018-07-08T20:36:44.563Z,3.47
2018-07-08T20:39:12.137Z,4.77
2018-07-08T20:41:39.807Z,2.53
2018-07-08T20:44:07.418Z,7.13
2018-07-08T20:46:35.173Z,4.07
2018-07-08T20:49:02.924Z,3.03
2018-07-08T20:51:31.139Z,4.90
2018-07-08T20:53:58.872Z,5.53
2018-07-08T20:56:26.520Z,7.00
2018-07-08T20:58:54.919Z,5.30
2018-07-08T21:01:22.561Z,3.83
2018-07-08T21:03:50.059Z,6.30
2018-07-08T21:06:17.645Z,5.63
2018-07-08T21:08:45.294Z,4.17
2018-07-08T21:11:13.162Z,3.73
2018-07-08T21:13:41.243Z,3.53
2018-07-08T21:16:08.898Z,8.10
2018-07-08T21:18:36.526Z,3.53
2018-07-08T21:21:04.744Z,5.17
2018-07-08T21:23:32.415Z,5.00
2018-07-08T21:26:00.276Z,5.73
2018-07-08T21:28:29.225Z,3.30
2018-07-08T21:30:56.830Z,7.20
2018-07-08T21:33:24.517Z,8.20
2018-07-08T21:35:52.161Z,6.03
2018-07-08T21:38:19.813Z,11.53
2018-07-08T21:40:47.474Z,5.43
2018-07-08T21:43:15.036Z,5.27
2018-07-08T21:45:42.592Z,5.80
2018-07-08T21:48:10.153Z,5.97
2018-07-08T21:50:37.705Z,8.43
2018-07-08T21:53:05.470Z,8.63
2018-07-08T21:55:33.062Z,10.10
2018-07-08T21:58:00.633Z,4.73
2018-07-08T22:00:31.196Z,6.20
2018-07-08T22:02:59.164Z,7.63
2018-07-08T22:05:27.552Z,6.67
2018-07-08T22:08:01.202Z,5.43
2018-07-08T22:10:30.086Z,6.27
2018-07-08T22:12:58.432Z,11.93
2018-07-08T22:15:26.108Z,5.37
2018-07-08T22:17:54.472Z,4.70
2018-07-08T22:20:23.321Z,7.70
2018-07-08T22:22:50.866Z,7.73
2018-07-08T22:25:18.410Z,5.80
2018-07-08T22:27:46.057Z,7.83
2018-07-08T22:30:13.990Z,4.47
2018-07-08T22:32:41.705Z,4.30
2018-07-08T22:35:09.691Z,9.03
2018-07-08T22:37:37.337Z,7.63
2018-07-08T22:40:05.169Z,5.53
2018-07-08T22:42:32.755Z,6.30
2018-07-08T22:45:00.411Z,4.90
2018-07-08T22:47:28.177Z,4.43
2018-07-08T22:49:55.789Z,6.57
2018-07-08T22:52:23.334Z,4.70
2018-07-08T22:54:51.071Z,13.20
2018-07-08T22:57:19.407Z,5.90
2018-07-08T22:59:58.223Z,10.07
2018-07-08T23:02:38.711Z,3.73
2018-07-08T23:05:06.427Z,6.13
2018-07-08T23:07:33.958Z,4.33
2018-07-08T23:10:01.569Z,6.70
2018-07-08T23:12:29.111Z,4.93
2018-07-08T23:14:57.106Z,6.70
2018-07-08T23:17:24.668Z,5.63
2018-07-08T23:19:52.402Z,8.60
2018-07-08T23:22:53.412Z,2.83
2018-07-08T23:25:20.980Z,5.97
2018-07-08T23:27:48.602Z,5.03
2018-07-08T23:30:16.135Z,4.83
2018-07-08T23:32:43.824Z,4.80
2018-07-08T23:35:11.373Z,3.70
2018-07-08T23:37:38.939Z,8.27
2018-07-08T23:40:06.506Z,3.10
2018-07-08T23:42:34.088Z,4.67
2018-07-08T23:45:02.014Z,5.47
2018-07-08T23:47:29.642Z,3.30
2018-07-08T23:49:57.603Z,7.40
2018-07-08T23:52:25.987Z,5.10
2018-07-08T23:54:53.573Z,3.70
2018-07-08T23:57:21.207Z,4.20
2018-07-08T23:59:48.768Z,3.07
